Station History

Weather Underground - logo

Station Historical Data
Daily Summary for January 30, 2018 Units:  Metric    English   Both
« Previous Day
Next Day »
Daily Weekly Monthly Yearly Custom
  High: Low: Average:
Temperature: 20.3 °C 4.2 °C 11.5 °C
Dew Point: 11.2 °C 3.3 °C 8.1 °C
Humidity: 96 % 52 % 82 %
Wind Speed: 5.6 km/h 0 km/h 0.5 km/h
Wind Gust: 5.6 km/h - -
Wind:- - WSW
Pressure: 1022.6 hPa 1017.8 hPa -
Precipitation: 0.25 mm    
Historical Graphs
 
 
Tabular Data for January 30, 2018
Time Temperature Dew Point Pressure Wind Wind Speed Wind Gust Humidity Rainfall Rate (Hourly)
00:00 7.7 °C 6.4 °C 1022.6 hPa Calm     92 % 0 mm
00:05 7.7 °C 6.6 °C 1022.6 hPa Calm     93 % 0 mm
00:10 7.8 °C 6.8 °C 1022.6 hPa Calm     93 % 0 mm
00:15 8.1 °C 7 °C 1022.6 hPa Calm     93 % 0 mm
00:20 8.2 °C 7.1 °C 1022.2 hPa NE 1.9 km/h 1.9 km/h 93 % 0 mm
00:25 8.3 °C 7.2 °C 1022.6 hPa Calm     93 % 0 mm
00:30 8.2 °C 6.9 °C 1022.6 hPa Calm     92 % 0 mm
00:35 8.1 °C 6.8 °C 1022.6 hPa Calm     92 % 0 mm
00:40 8.1 °C 6.8 °C 1022.6 hPa Calm     92 % 0 mm
00:45 7.9 °C 6.7 °C 1022.6 hPa Calm     92 % 0 mm
00:50 7.9 °C 6.7 °C 1022.6 hPa Calm     92 % 0 mm
00:55 7.8 °C 6.6 °C 1022.6 hPa Calm     92 % 0 mm
01:00 7.8 °C 6.7 °C 1022.6 hPa Calm     93 % 0 mm
01:05 7.7 °C 6.7 °C 1022.6 hPa Calm     93 % 0 mm
01:10 7.7 °C 6.7 °C 1022.6 hPa Calm     93 % 0 mm
01:15 7.7 °C 6.6 °C 1022.6 hPa Calm     93 % 0 mm
01:20 7.6 °C 6.5 °C 1022.6 hPa Calm     93 % 0 mm
01:25 7.6 °C 6.5 °C 1022.6 hPa Calm     93 % 0 mm
01:30 7.6 °C 6.5 °C 1022.6 hPa Calm     93 % 0 mm
01:35 7.6 °C 6.5 °C 1022.6 hPa Calm     93 % 0 mm
01:40 7.6 °C 6.5 °C 1022.2 hPa Calm     93 % 0 mm
01:45 7.6 °C 6.7 °C 1022.2 hPa Calm     94 % 0 mm
01:50 7.7 °C 6.8 °C 1022.2 hPa Calm     94 % 0 mm
01:55 7.7 °C 6.7 °C 1022.2 hPa Calm     93 % 0 mm
02:00 7.7 °C 6.6 °C 1022.2 hPa Calm     93 % 0 mm
02:05 7.6 °C 6.6 °C 1022.2 hPa Calm     93 % 0 mm
02:10 7.7 °C 6.6 °C 1021.9 hPa Calm     93 % 0 mm
02:15 7.7 °C 6.6 °C 1021.9 hPa Calm     93 % 0 mm
02:20 7.6 °C 6.6 °C 1021.6 hPa Calm     93 % 0 mm
02:25 7.7 °C 6.8 °C 1021.9 hPa Calm     94 % 0 mm
02:30 7.6 °C 6.6 °C 1021.6 hPa Calm     93 % 0 mm
02:35 7.6 °C 6.5 °C 1021.6 hPa Calm     93 % 0 mm
02:40 7.4 °C 6.4 °C 1021.6 hPa Calm     93 % 0 mm
02:45 7.3 °C 6.2 °C 1021.6 hPa Calm     93 % 0 mm
02:50 7.1 °C 6.1 °C 1021.6 hPa Calm     93 % 0 mm
02:55 7 °C 5.9 °C 1021.2 hPa Calm     93 % 0 mm
03:00 6.9 °C 5.8 °C 1021.2 hPa Calm     93 % 0 mm
03:05 6.7 °C 5.7 °C 1021.2 hPa Calm     93 % 0 mm
03:10 6.7 °C 5.7 °C 1021.2 hPa Calm     93 % 0 mm
03:15 6.7 °C 5.6 °C 1021.2 hPa Calm     93 % 0 mm
03:20 6.8 °C 5.9 °C 1021.2 hPa Calm     94 % 0 mm
03:25 6.7 °C 5.8 °C 1021.2 hPa Calm     94 % 0 mm
03:30 6.7 °C 5.8 °C 1020.9 hPa Calm     94 % 0 mm
03:35 6.6 °C 5.7 °C 1020.9 hPa Calm     94 % 0 mm
03:40 6.6 °C 5.5 °C 1020.9 hPa Calm     93 % 0 mm
03:45 6.4 °C 5.4 °C 1020.9 hPa Calm     93 % 0 mm
03:50 6.3 °C 5.2 °C 1020.9 hPa Calm     93 % 0 mm
03:55 6.2 °C 5.1 °C 1020.9 hPa Calm     93 % 0 mm
04:00 6.1 °C 5.2 °C 1020.9 hPa Calm     94 % 0 mm
04:05 6.2 °C 5.3 °C 1020.9 hPa Calm     94 % 0 mm
04:10 6.2 °C 5.3 °C 1020.9 hPa Calm     94 % 0 mm
04:15 6 °C 5.1 °C 1020.9 hPa Calm     94 % 0 mm
04:20 5.8 °C 4.9 °C 1021.2 hPa Calm     94 % 0 mm
04:25 5.9 °C 5 °C 1021.2 hPa Calm     94 % 0 mm
04:30 6 °C 5.3 °C 1021.2 hPa Calm     95 % 0 mm
04:35 6 °C 5.3 °C 1021.2 hPa Calm     95 % 0 mm
04:40 6.1 °C 5.3 °C 1021.2 hPa Calm     95 % 0 mm
04:45 6 °C 5.3 °C 1021.2 hPa Calm     95 % 0 mm
04:50 6 °C 5.3 °C 1021.6 hPa Calm     95 % 0 mm
04:55 6 °C 5.3 °C 1021.6 hPa Calm     95 % 0 mm
05:00 6 °C 5.3 °C 1021.6 hPa Calm     95 % 0 mm
05:05 6 °C 5.3 °C 1021.6 hPa Calm     95 % 0 mm
05:10 5.8 °C 5.1 °C 1021.6 hPa Calm     95 % 0 mm
05:15 5.5 °C 4.6 °C 1021.6 hPa Calm     94 % 0 mm
05:20 5.3 °C 4.4 °C 1021.6 hPa Calm     94 % 0 mm
05:25 5.3 °C 4.4 °C 1021.6 hPa Calm     94 % 0 mm
05:30 5.2 °C 4.3 °C 1021.6 hPa Calm     94 % 0 mm
05:35 5.3 °C 4.6 °C 1021.6 hPa Calm     95 % 0 mm
05:40 5.5 °C 4.8 °C 1021.6 hPa Calm     95 % 0 mm
05:46 5.4 °C 4.7 °C 1021.6 hPa Calm     95 % 0 mm
05:51 5.4 °C 4.7 °C 1021.6 hPa Calm     95 % 0 mm
05:56 5.3 °C 4.6 °C 1021.6 hPa Calm     95 % 0.25 mm
06:01 5.2 °C 4.5 °C 1021.2 hPa Calm     95 % 0.25 mm
06:06 5 °C 4.3 °C 1021.6 hPa Calm     95 % 0.25 mm
06:11 4.9 °C 4.2 °C 1021.2 hPa Calm     95 % 0.25 mm
06:16 4.9 °C 4.2 °C 1021.2 hPa Calm     95 % 0.25 mm
06:21 5 °C 4.3 °C 1021.6 hPa Calm     95 % 0.25 mm
06:26 4.8 °C 4.1 °C 1021.6 hPa NE 1.9 km/h   95 % 0.25 mm
06:31 4.8 °C 4.1 °C 1021.6 hPa Calm     95 % 0.25 mm
06:36 4.6 °C 3.7 °C 1021.6 hPa Calm     94 % 0.25 mm
06:41 4.4 °C 3.5 °C 1021.6 hPa Calm     94 % 0.25 mm
06:46 4.3 °C 3.4 °C 1021.6 hPa Calm     94 % 0.25 mm
06:51 4.2 °C 3.3 °C 1021.6 hPa Calm     94 % 0.25 mm
06:56 4.2 °C 3.5 °C 1021.6 hPa Calm     95 % 0 mm
07:01 4.2 °C 3.4 °C 1021.6 hPa NE 1.9 km/h 1.9 km/h 95 % 0 mm
07:06 4.3 °C 3.6 °C 1021.6 hPa Calm     95 % 0 mm
07:11 4.4 °C 3.7 °C 1021.6 hPa Calm     95 % 0 mm
07:16 4.4 °C 3.7 °C 1021.6 hPa Calm     95 % 0 mm
07:21 4.4 °C 3.7 °C 1021.6 hPa Calm     95 % 0 mm
07:26 4.4 °C 3.7 °C 1021.9 hPa Calm     95 % 0 mm
07:31 4.5 °C 3.8 °C 1021.9 hPa Calm     95 % 0 mm
07:36 4.8 °C 4.1 °C 1021.9 hPa Calm     95 % 0 mm
07:41 5.1 °C 4.4 °C 1021.9 hPa Calm     96 % 0 mm
07:46 5.3 °C 4.7 °C 1021.9 hPa Calm     96 % 0 mm
07:51 5.8 °C 5.2 °C 1022.2 hPa NE 1.9 km/h   96 % 0 mm
07:56 6.3 °C 5.7 °C 1022.2 hPa Calm     96 % 0 mm
08:01 7.2 °C 6.6 °C 1022.2 hPa Calm     96 % 0 mm
08:06 7.6 °C 7 °C 1022.2 hPa Calm     96 % 0 mm
08:11 8.1 °C 7.4 °C 1022.2 hPa Calm     96 % 0 mm
08:16 8.7 °C 8.1 °C 1022.2 hPa Calm     96 % 0 mm
08:21 9.6 °C 8.9 °C 1022.2 hPa Calm     96 % 0 mm
08:26 10.2 °C 9.3 °C 1022.2 hPa Calm     94 % 0 mm
08:31 10.8 °C 9.4 °C 1022.2 hPa Calm     91 % 0 mm
08:36 11.2 °C 9.4 °C 1022.2 hPa Calm     89 % 0 mm
08:41 11.5 °C 9.6 °C 1022.2 hPa Calm     88 % 0 mm
08:46 11.8 °C 9.7 °C 1022.2 hPa Calm     87 % 0 mm
08:51 12.3 °C 10.1 °C 1022.2 hPa Calm     86 % 0 mm
08:56 12.4 °C 9.8 °C 1022.2 hPa SSE 1.9 km/h 1.9 km/h 84 % 0 mm
09:01 12.4 °C 9.8 °C 1021.9 hPa SE 1.9 km/h 1.9 km/h 84 % 0 mm
09:06 12.7 °C 10.3 °C 1021.9 hPa Calm     85 % 0 mm
09:11 13.2 °C 10.3 °C 1022.2 hPa Calm     83 % 0 mm
09:16 13.4 °C 10.2 °C 1022.2 hPa Calm     81 % 0 mm
09:21 13.6 °C 10.4 °C 1022.2 hPa Calm     81 % 0 mm
09:26 13.8 °C 10.4 °C 1022.2 hPa SE 3.7 km/h 3.7 km/h 80 % 0 mm
09:31 13.7 °C 10.3 °C 1022.2 hPa South 1.6 km/h 1.6 km/h 80 % 0 mm
09:36 13.6 °C 10.1 °C 1022.6 hPa NNE 3.7 km/h 3.7 km/h 79 % 0 mm
09:41 13.2 °C 9.8 °C 1022.6 hPa WNW 1.9 km/h 1.9 km/h 80 % 0 mm
09:46 13 °C 9.8 °C 1022.6 hPa WNW 1.9 km/h 1.9 km/h 81 % 0 mm
09:51 12.8 °C 9.8 °C 1022.6 hPa NW 1.9 km/h 1.9 km/h 82 % 0 mm
09:56 12.7 °C 9.9 °C 1022.6 hPa NW 1.6 km/h 1.6 km/h 83 % 0 mm
10:01 12.6 °C 9.8 °C 1022.6 hPa Calm     83 % 0 mm
10:06 12.6 °C 9.8 °C 1022.6 hPa Calm     83 % 0 mm
10:11 12.8 °C 10 °C 1022.2 hPa Calm     83 % 0 mm
10:16 12.9 °C 10.1 °C 1022.2 hPa Calm     83 % 0 mm
10:21 13.2 °C 10.2 °C 1022.2 hPa NW 1.9 km/h   82 % 0 mm
10:26 13.4 °C 10.2 °C 1022.2 hPa South 1.9 km/h 1.9 km/h 81 % 0 mm
10:31 13.6 °C 10.4 °C 1022.2 hPa Calm     81 % 0 mm
10:36 13.8 °C 10.4 °C 1022.2 hPa Calm     80 % 0 mm
10:42 13.9 °C 10.3 °C 1022.2 hPa South 3.7 km/h 3.7 km/h 79 % 0 mm
10:47 14 °C 10.4 °C 1022.2 hPa Calm     79 % 0 mm
10:52 14.1 °C 10.3 °C 1022.2 hPa Calm     78 % 0 mm
10:57 14.3 °C 10.7 °C 1022.2 hPa NW 1.9 km/h 1.9 km/h 79 % 0 mm
11:02 14.4 °C 10.4 °C 1021.9 hPa WNW 3.7 km/h 3.7 km/h 77 % 0 mm
11:07 14.5 °C 10.3 °C 1021.9 hPa WNW 3.7 km/h 3.7 km/h 76 % 0 mm
11:12 14.7 °C 10.3 °C 1021.9 hPa NNW 3.7 km/h 3.7 km/h 75 % 0 mm
11:17 15.1 °C 10.7 °C 1021.9 hPa NNE 3.7 km/h   75 % 0 mm
11:22 15.4 °C 10.8 °C 1021.9 hPa NNW 3.7 km/h 3.7 km/h 74 % 0 mm
11:27 15.6 °C 10.7 °C 1021.9 hPa Calm   0.3 km/h 73 % 0 mm
11:32 15.8 °C 10.6 °C 1021.6 hPa NW 1.9 km/h 1.9 km/h 71 % 0 mm
11:37 16 °C 10.7 °C 1021.6 hPa WNW 3.7 km/h 3.7 km/h 71 % 0 mm
11:42 16.3 °C 11.2 °C 1021.6 hPa Calm     72 % 0 mm
11:47 16.7 °C 11 °C 1021.2 hPa Calm     69 % 0 mm
11:52 16.9 °C 10.9 °C 1021.2 hPa Calm     68 % 0 mm
11:57 17 °C 10.8 °C 1021.2 hPa NW 1.9 km/h 1.9 km/h 67 % 0 mm
12:02 17.1 °C 11.1 °C 1020.9 hPa Calm     68 % 0 mm
12:07 17.2 °C 10.6 °C 1020.9 hPa Calm     65 % 0 mm
12:12 17.3 °C 10.7 °C 1020.9 hPa West 5.6 km/h 5.6 km/h 65 % 0 mm
12:17 17.3 °C 10.7 °C 1020.5 hPa NW 1.9 km/h   65 % 0 mm
12:22 17.4 °C 10.6 °C 1020.5 hPa Calm     64 % 0 mm
12:27 17.7 °C 11.1 °C 1020.5 hPa NNW 3.2 km/h 3.2 km/h 65 % 0 mm
12:32 17.9 °C 10.6 °C 1020.2 hPa Calm     62 % 0 mm
12:37 18.3 °C 10.9 °C 1020.2 hPa WNW 1.6 km/h 1.6 km/h 62 % 0 mm
12:42 18.3 °C 10.7 °C 1020.2 hPa NW 3.7 km/h 3.7 km/h 61 % 0 mm
12:47 18.2 °C 10.5 °C 1019.9 hPa NW 1.6 km/h 1.6 km/h 61 % 0 mm
12:52 18.3 °C 10.1 °C 1019.9 hPa NW 1.9 km/h 1.9 km/h 59 % 0 mm
12:57 18.4 °C 10.3 °C 1019.9 hPa West 1.9 km/h 1.9 km/h 59 % 0 mm
13:02 18.7 °C 10.7 °C 1019.9 hPa NE 1.9 km/h   60 % 0 mm
13:07 18.9 °C 11 °C 1019.5 hPa North 1.9 km/h   60 % 0 mm
13:12 19.2 °C 11 °C 1019.5 hPa Calm     59 % 0 mm
13:17 19.3 °C 11.1 °C 1019.5 hPa NW 1.9 km/h 1.9 km/h 59 % 0 mm
13:22 19.1 °C 10.7 °C 1019.5 hPa NW 1.9 km/h 1.9 km/h 58 % 0 mm
13:27 19.1 °C 10.8 °C 1019.2 hPa NW 1.9 km/h 1.9 km/h 59 % 0 mm
13:32 19.1 °C 10.7 °C 1019.2 hPa NNE 1.9 km/h   58 % 0 mm
13:37 19.2 °C 10.9 °C 1019.2 hPa NW 3.7 km/h 3.7 km/h 59 % 0 mm
13:42 19.3 °C 10.8 °C 1019.2 hPa NW 1.9 km/h 1.9 km/h 58 % 0 mm
13:47 19.4 °C 10.4 °C 1019.2 hPa NNE 1.9 km/h   56 % 0 mm
13:52 19.4 °C 10.4 °C 1018.8 hPa NW 1.9 km/h 1.9 km/h 56 % 0 mm
13:57 19.6 °C 11.1 °C 1018.8 hPa Calm     58 % 0 mm
14:02 19.7 °C 10.7 °C 1018.8 hPa NW 1.9 km/h 1.9 km/h 56 % 0 mm
14:07 19.8 °C 10.5 °C 1018.8 hPa NNW 3.7 km/h 3.7 km/h 55 % 0 mm
14:12 19.8 °C 10.5 °C 1018.8 hPa WNW 1.9 km/h   55 % 0 mm
14:17 20 °C 10.9 °C 1018.8 hPa Calm     56 % 0 mm
14:22 20.2 °C 10.6 °C 1018.8 hPa Calm     54 % 0 mm
14:27 20.3 °C 10.7 °C 1018.5 hPa WNW 1.6 km/h 1.6 km/h 54 % 0 mm
14:32 20.2 °C 10.6 °C 1018.8 hPa WSW 1.9 km/h 1.9 km/h 54 % 0 mm
14:37 20.1 °C 10.2 °C 1018.8 hPa WNW 5.6 km/h 5.6 km/h 53 % 0 mm
14:42 19.9 °C 10.1 °C 1018.5 hPa Calm   0.2 km/h 53 % 0 mm
14:47 20.1 °C 11 °C 1018.5 hPa NNW 3.7 km/h 3.7 km/h 56 % 0 mm
14:52 20 °C 10.1 °C 1018.5 hPa NW 1.9 km/h 1.9 km/h 53 % 0 mm
14:57 19.9 °C 10.1 °C 1018.5 hPa Calm     53 % 0 mm
15:02 19.9 °C 10.1 °C 1018.5 hPa NW 1.9 km/h 1.9 km/h 53 % 0 mm
15:07 19.9 °C 10.3 °C 1018.5 hPa NW 1.9 km/h 1.9 km/h 54 % 0 mm
15:12 19.8 °C 9.9 °C 1018.5 hPa West 1.9 km/h 1.9 km/h 53 % 0 mm
15:17 19.7 °C 9.9 °C 1018.5 hPa NW 1.9 km/h   53 % 0 mm
15:22 19.7 °C 9.9 °C 1018.5 hPa Calm     53 % 0 mm
15:27 19.7 °C 9.8 °C 1018.5 hPa NW 3.7 km/h 3.7 km/h 53 % 0 mm
15:32 19.7 °C 9.8 °C 1018.2 hPa Calm     53 % 0 mm
15:37 19.7 °C 9.6 °C 1018.2 hPa Calm     52 % 0 mm
15:42 19.7 °C 9.6 °C 1018.2 hPa WNW 1.9 km/h 1.9 km/h 52 % 0 mm
15:47 19.7 °C 9.9 °C 1018.2 hPa WNW 3.7 km/h 3.7 km/h 53 % 0 mm
15:52 19.6 °C 9.8 °C 1018.2 hPa NW 1.6 km/h 1.6 km/h 53 % 0 mm
15:57 19.6 °C 9.4 °C 1017.8 hPa Calm     52 % 0 mm
16:02 19.5 °C 9.4 °C 1017.8 hPa NW 1.9 km/h 1.9 km/h 52 % 0 mm
16:07 19.5 °C 9.4 °C 1017.8 hPa Calm     52 % 0 mm
16:12 19.4 °C 9.3 °C 1017.8 hPa Calm     52 % 0 mm
16:17 19.3 °C 9.5 °C 1017.8 hPa Calm     53 % 0 mm
16:22 19.3 °C 10.3 °C 1017.8 hPa Calm     56 % 0 mm
16:27 19.1 °C 10.7 °C 1017.8 hPa Calm     58 % 0 mm
16:32 18.9 °C 10.8 °C 1017.8 hPa SSE 1.9 km/h   59 % 0 mm
16:37 18.8 °C 10.8 °C 1017.8 hPa Calm     60 % 0 mm
16:42 18.6 °C 10.9 °C 1017.8 hPa Calm     61 % 0 mm
16:47 18.4 °C 11 °C 1018.2 hPa Calm     62 % 0 mm
16:52 18.2 °C 11.1 °C 1018.2 hPa Calm     63 % 0 mm
16:57 18.1 °C 11.1 °C 1018.2 hPa Calm     64 % 0 mm
17:02 17.8 °C 11.2 °C 1018.2 hPa Calm     65 % 0 mm
17:07 17.6 °C 11.1 °C 1017.8 hPa Calm     66 % 0 mm
17:12 17.2 °C 11.1 °C 1018.2 hPa Calm     67 % 0 mm
17:17 16.9 °C 10.9 °C 1018.2 hPa Calm     68 % 0 mm
17:22 16.6 °C 10.9 °C 1018.2 hPa Calm     69 % 0 mm
17:27 16.3 °C 10.8 °C 1018.2 hPa Calm     70 % 0 mm
17:32 16.1 °C 10.8 °C 1018.2 hPa Calm     71 % 0 mm
17:37 15.8 °C 10.7 °C 1018.2 hPa Calm     72 % 0 mm
17:42 15.5 °C 10.4 °C 1018.2 hPa Calm     72 % 0 mm
17:47 15.3 °C 10.3 °C 1018.2 hPa Calm     72 % 0 mm
17:52 15 °C 10 °C 1018.2 hPa Calm     72 % 0 mm
17:58 14.8 °C 10.1 °C 1018.5 hPa Calm     73 % 0 mm
18:03 14.6 °C 10 °C 1018.2 hPa Calm     74 % 0 mm
18:08 14.3 °C 9.9 °C 1018.5 hPa Calm     75 % 0 mm
18:13 14.1 °C 9.9 °C 1018.2 hPa Calm     76 % 0 mm
18:18 13.9 °C 9.7 °C 1018.2 hPa Calm     76 % 0 mm
18:23 13.6 °C 9.7 °C 1018.2 hPa Calm     77 % 0 mm
18:28 13.5 °C 9.7 °C 1018.2 hPa Calm     78 % 0 mm
18:33 13.2 °C 9.4 °C 1018.5 hPa Calm     78 % 0 mm
18:38 12.9 °C 9.6 °C 1018.5 hPa Calm     80 % 0 mm
18:43 12.7 °C 9.5 °C 1018.5 hPa Calm     81 % 0 mm
18:48 12.6 °C 9.4 °C 1018.2 hPa Calm     81 % 0 mm
18:53 12.4 °C 9.3 °C 1018.5 hPa Calm     81 % 0 mm
18:59 12.2 °C 9 °C 1018.2 hPa Calm     81 % 0 mm
19:03 11.9 °C 8.9 °C 1018.5 hPa Calm     82 % 0 mm
19:09 11.6 °C 8.8 °C 1018.5 hPa Calm     83 % 0 mm
19:14 11.5 °C 9.1 °C 1018.2 hPa Calm     85 % 0 mm
19:19 11.6 °C 9.1 °C 1018.5 hPa Calm     85 % 0 mm
19:24 11.4 °C 9 °C 1018.5 hPa Calm     85 % 0 mm
19:29 11.4 °C 9 °C 1018.2 hPa Calm     85 % 0 mm
19:34 11.4 °C 8.9 °C 1018.5 hPa Calm     85 % 0 mm
19:39 11.3 °C 8.9 °C 1018.5 hPa Calm     85 % 0 mm
19:44 11.3 °C 8.9 °C 1018.5 hPa Calm     85 % 0 mm
19:49 11.3 °C 9 °C 1018.5 hPa Calm     86 % 0 mm
19:54 11.2 °C 8.9 °C 1018.5 hPa Calm     86 % 0 mm
19:59 11 °C 8.7 °C 1018.5 hPa Calm     86 % 0 mm
20:04 10.9 °C 8.8 °C 1018.8 hPa Calm     87 % 0 mm
20:09 10.8 °C 8.7 °C 1018.8 hPa Calm     87 % 0 mm
20:14 10.7 °C 8.6 °C 1018.5 hPa Calm     87 % 0 mm
20:19 10.4 °C 8.4 °C 1018.8 hPa Calm     87 % 0 mm
20:24 10.3 °C 8.3 °C 1018.8 hPa Calm     87 % 0 mm
20:29 10.3 °C 8.4 °C 1018.8 hPa Calm     88 % 0 mm
20:34 10.3 °C 8.4 °C 1018.8 hPa Calm     88 % 0 mm
20:39 10.4 °C 8.5 °C 1019.2 hPa Calm     88 % 0 mm
20:44 10.2 °C 8.3 °C 1019.2 hPa Calm     88 % 0 mm
20:49 10 °C 7.9 °C 1019.2 hPa Calm     87 % 0 mm
20:54 9.7 °C 7.8 °C 1019.2 hPa Calm     88 % 0 mm
20:59 9.5 °C 7.8 °C 1019.2 hPa Calm     89 % 0 mm
21:04 9.4 °C 7.7 °C 1019.5 hPa Calm     89 % 0 mm
21:09 9.3 °C 7.8 °C 1019.5 hPa Calm     90 % 0 mm
21:14 9.3 °C 7.7 °C 1019.5 hPa Calm     90 % 0 mm
21:19 9.2 °C 7.6 °C 1019.5 hPa Calm     90 % 0 mm
21:24 9.1 °C 7.5 °C 1019.5 hPa Calm     90 % 0 mm
21:29 8.9 °C 7.4 °C 1019.5 hPa Calm     90 % 0 mm
21:34 9 °C 7.6 °C 1019.5 hPa Calm     91 % 0 mm
21:39 9 °C 7.6 °C 1019.5 hPa Calm     91 % 0 mm
21:44 8.9 °C 7.6 °C 1019.5 hPa Calm     91 % 0 mm
21:49 8.8 °C 7.4 °C 1019.5 hPa Calm     91 % 0 mm
21:54 8.7 °C 7.3 °C 1019.5 hPa Calm     91 % 0 mm
21:59 8.7 °C 7.3 °C 1019.5 hPa Calm     91 % 0 mm
22:04 8.6 °C 7.2 °C 1019.5 hPa Calm     91 % 0 mm
22:09 8.5 °C 7.1 °C 1019.5 hPa Calm     91 % 0 mm
22:14 8.4 °C 7.1 °C 1019.5 hPa Calm     91 % 0 mm
22:19 8.5 °C 7.3 °C 1019.5 hPa Calm     92 % 0 mm
22:24 8.4 °C 7 °C 1019.9 hPa Calm     91 % 0 mm
22:29 8.4 °C 7 °C 1019.5 hPa Calm     91 % 0 mm
22:34 8.4 °C 7.1 °C 1019.5 hPa Calm     91 % 0 mm
22:39 8.4 °C 7.1 °C 1019.5 hPa Calm     91 % 0 mm
22:44 8.3 °C 6.9 °C 1019.5 hPa Calm     91 % 0 mm
22:49 8.3 °C 6.9 °C 1019.5 hPa Calm     91 % 0 mm
22:54 8.3 °C 6.9 °C 1019.5 hPa Calm     91 % 0 mm
22:59 8.3 °C 6.9 °C 1019.5 hPa Calm     91 % 0 mm
23:04 8.2 °C 7 °C 1019.5 hPa Calm     92 % 0 mm
23:09 8.2 °C 6.8 °C 1019.5 hPa Calm     91 % 0 mm
23:14 8.2 °C 6.8 °C 1019.5 hPa Calm     91 % 0 mm
23:19 8.1 °C 6.9 °C 1019.2 hPa Calm     92 % 0 mm
23:24 8.1 °C 6.7 °C 1019.2 hPa Calm     91 % 0 mm
23:29 7.9 °C 6.6 °C 1019.2 hPa Calm     91 % 0 mm
23:34 7.8 °C 6.4 °C 1019.2 hPa Calm     91 % 0 mm
23:39 7.7 °C 6.3 °C 1019.2 hPa Calm     91 % 0 mm
23:44 7.6 °C 6.2 °C 1019.2 hPa Calm     91 % 0 mm
23:49 7.5 °C 6.1 °C 1019.2 hPa Calm     91 % 0 mm
23:54 7.4 °C 6.2 °C 1019.2 hPa Calm     92 % 0 mm
23:59 7.4 °C 6 °C 1019.2 hPa Calm     91 % 0 mm
Park Place, Exeter, Tulare County, California, USA
Compliments of Weather Underground - 2.75 mb